Latest Weather Observations for Cape Borda

IDS60801

Issued at 4:02 pm CDT Saturday 20 December 2014 (issued every 30 minutes, with the page automatically refreshed every 10 minutes)

About weather observations | Map of weather stations | Latest weather observations for SA | Other Formats
Station Details ID: 022823 Name: CAPE BORDA Lat: -35.75 Lon: 136.60 Height: 158.0 m
Data from the previous 72 hours. | See also: Recent months at Cape Borda
Date/Time
CDT
Temp
°C
App
Temp
°C
Dew
Point
Rel
Hum
%
Delta-T
°C
Wind Press
QNH
hPa
Press
MSL
hPa
Rain
since 9 am
mm
Dir
 
Spd
km/h
Gust
km/h
Spd
kts
Gust
kts
20/04:00pm 19.9 18.0 11.8 59 4.5 NW 13 17 7 9 1015.8 - 0.0
20/03:30pm 19.3 17.0 11.7 61 4.2 WNW 15 20 8 11 1016.1 - 0.0
20/03:00pm 19.1 16.7 11.5 61 4.2 W 15 20 8 11 1016.7 1016.5 0.0
20/02:30pm 18.7 15.9 11.2 61 4.1 WNW 17 22 9 12 1017.2 - 0.0
20/02:00pm 19.1 16.9 10.9 59 4.5 W 13 20 7 11 1017.5 - 0.0
20/01:30pm 18.6 16.1 10.9 61 4.2 W 15 22 8 12 1018.0 - 0.0
20/01:00pm 18.7 16.2 11.0 61 4.2 W 15 22 8 12 1018.2 - 0.0
20/12:30pm 18.8 15.9 10.9 60 4.3 W 17 24 9 13 1018.5 - 0.0
20/12:00pm 18.3 15.5 10.1 59 4.4 W 15 20 8 11 1018.9 1018.7 0.0
20/11:30am 17.6 14.8 10.1 61 4.0 W 15 20 8 11 1019.2 - 0.0
20/11:00am 17.8 15.4 10.1 60 4.1 N 13 17 7 9 1019.3 - 0.0
20/10:30am 17.3 15.2 9.9 62 3.9 N 11 17 6 9 1019.4 - 0.0
20/10:00am 16.8 14.7 9.6 62 3.8 N 11 15 6 8 1019.7 - 0.0
20/09:30am 16.9 14.5 9.9 63 3.7 N 13 19 7 10 1020.0 - 0.0
20/09:00am 16.4 14.0 10.0 66 3.4 N 13 17 7 9 1020.2 1020.0 0.0
20/08:30am 16.3 14.9 9.4 63 3.6 ESE 7 11 4 6 1019.9 - 0.0
20/08:00am 15.4 13.8 10.3 71 2.7 ESE 9 13 5 7 1019.6 - 0.0
20/07:30am 13.6 12.1 10.6 82 1.6 ESE 9 11 5 6 1019.3 - 0.0
20/07:00am 11.7 9.2 9.7 87 1.0 ESE 13 13 7 7 1019.2 - 0.0
20/06:30am 10.7 8.0 9.1 90 0.8 ESE 13 15 7 8 1019.1 - 0.0
20/06:00am 10.6 8.0 9.2 91 0.7 ESE 13 13 7 7 1019.1 1018.9 0.0
20/05:30am 10.3 7.6 8.9 91 0.7 ESE 13 15 7 8 1019.0 - 0.0
20/05:00am 10.1 7.4 8.9 92 0.6 SE 13 15 7 8 1018.8 - 0.0
20/04:30am 10.0 6.9 8.8 92 0.6 SE 15 17 8 9 1018.4 - 0.0
20/04:00am 10.1 7.0 8.7 91 0.7 ESE 15 17 8 9 1018.4 - 0.0
20/03:30am 10.1 6.9 8.5 90 0.8 ESE 15 17 8 9 1018.3 - 0.0
20/03:00am 10.3 6.8 8.7 90 0.8 ESE 17 17 9 9 1018.5 1018.3 0.0
20/02:30am 10.3 6.8 8.7 90 0.8 SE 17 17 9 9 1018.7 - 0.0
20/02:00am 10.6 7.1 8.6 87 1.0 SE 17 17 9 9 1019.2 - 0.0
20/01:30am 11.1 8.0 8.7 85 1.2 SE 15 17 8 9 1019.8 - 0.0
20/01:00am 11.3 7.8 8.9 85 1.2 SE 17 19 9 10 1020.1 - 0.0
20/12:30am 11.7 8.2 8.9 83 1.4 SE 17 20 9 11 1020.4 - 0.0
20/12:00am 12.1 8.6 8.9 81 1.6 SSE 17 20 9 11 1020.6 1020.4 0.0
 
Date/Time
CDT
Temp
°C
App
Temp
°C
Dew
Point
Rel
Hum
%
Delta-T
°C
Wind Press
QNH
hPa
Press
MSL
hPa
Rain
since 9 am
mm
Dir
 
Spd
km/h
Gust
km/h
Spd
kts
Gust
kts
19/11:30pm 12.3 8.5 8.9 80 1.7 SSE 19 20 10 11 1020.9 - 0.0
19/11:00pm 12.3 8.8 8.9 80 1.7 SSE 17 24 9 13 1021.1 - 0.0
19/10:30pm 11.8 8.3 8.8 82 1.5 SSE 17 19 9 10 1021.2 - 0.0
19/10:00pm 12.3 8.7 8.5 77 1.9 S 17 20 9 11 1021.3 - 0.0
19/09:30pm 12.6 8.6 8.4 75 2.1 S 19 20 10 11 1021.0 - 0.0
19/09:00pm 13.5 9.5 8.1 70 2.7 S 19 20 10 11 1021.0 1020.7 0.0
19/08:30pm 14.6 11.0 8.2 65 3.2 S 17 24 9 13 1021.1 - 0.0
19/08:00pm 15.7 11.7 8.2 61 3.8 S 19 24 10 13 1021.0 - 0.0
19/07:30pm 16.4 11.9 8.4 59 4.1 SSW 22 32 12 17 1021.1 - 0.0
19/07:00pm 16.9 11.9 8.1 56 4.5 SW 24 32 13 17 1021.0 - 0.0
19/06:30pm 18.0 13.5 8.5 53 4.9 SW 22 32 12 17 1021.1 - 0.0
19/06:00pm 17.8 13.3 8.5 54 4.8 SW 22 30 12 16 1020.9 1020.6 0.0
19/05:30pm 18.1 13.3 8.9 55 4.8 WSW 24 32 13 17 1020.8 - 0.0
19/05:00pm 18.6 13.7 8.6 52 5.2 WSW 24 35 13 19 1020.9 - 0.0
19/04:30pm 17.8 12.9 8.3 53 4.9 SW 24 32 13 17 1021.0 - 0.0
19/04:00pm 18.6 14.0 8.1 50 5.4 SW 22 32 12 17 1021.1 - 0.0
19/03:30pm 18.6 14.5 8.6 52 5.2 WSW 20 30 11 16 1021.3 - 0.0
19/03:00pm 19.2 14.7 8.5 50 5.6 W 22 32 12 17 1021.3 1021.0 0.0
19/02:30pm 18.4 14.2 8.3 51 5.2 W 20 28 11 15 1021.3 - 0.0
19/02:00pm 18.4 14.0 7.6 49 5.5 W 20 32 11 17 1021.4 - 0.0
19/01:30pm 18.2 14.0 7.6 50 5.4 W 19 28 10 15 1021.6 - 0.0
19/01:00pm 18.2 13.9 7.8 50 5.3 W 20 26 11 14 1021.8 - 0.0
19/12:30pm 17.8 13.4 7.6 51 5.2 WSW 20 28 11 15 1021.8 - 0.0
19/12:00pm 17.7 13.3 7.2 50 5.3 W 20 26 11 14 1022.0 1021.8 0.0
19/11:30am 17.9 13.9 8.4 53 4.9 W 19 26 10 14 1021.9 - 0.0
19/11:00am 17.7 13.5 8.4 54 4.8 W 20 28 11 15 1021.9 - 0.0
19/10:30am 17.2 13.3 8.5 56 4.5 W 19 24 10 13 1021.7 - 0.0
19/10:00am 16.5 12.8 8.0 57 4.3 SW 17 24 9 13 1021.3 - 0.0
19/09:30am 15.4 12.2 8.5 63 3.5 WSW 15 17 8 9 1021.2 - 0.0
19/09:00am 15.6 13.6 8.8 64 3.5 S 9 15 5 8 1020.6 1020.4 0.0
19/08:30am 14.6 12.3 8.9 68 2.9 S 11 15 6 8 1020.2 - 0.0
19/08:00am 13.3 11.3 8.5 72 2.4 S 9 11 5 6 1019.8 - 0.0
19/07:30am 12.6 10.5 8.2 74 2.2 S 9 11 5 6 1019.5 - 0.0
19/07:00am 11.8 9.2 7.9 77 1.9 S 11 13 6 7 1019.1 - 0.0
19/06:30am 10.4 6.9 7.3 81 1.5 S 15 17 8 9 1018.6 - 0.0
19/06:00am 10.1 6.5 6.9 80 1.5 S 15 17 8 9 1018.6 1018.4 0.0
19/05:30am 10.4 7.2 6.8 78 1.7 S 13 15 7 8 1018.4 - 0.0
19/05:00am 11.1 8.0 7.1 76 1.9 S 13 15 7 8 1018.4 - 0.0
19/04:30am 10.3 7.1 6.7 78 1.7 S 13 15 7 8 1018.4 - 0.0
19/04:00am 10.3 6.7 6.7 78 1.7 S 15 15 8 8 1018.3 - 0.0
19/03:30am 10.3 6.6 6.5 77 1.8 S 15 15 8 8 1018.4 - 0.0
19/03:00am 10.9 7.3 6.7 75 2.0 S 15 17 8 9 1018.3 1018.1 0.0
19/02:30am 11.1 7.8 6.5 73 2.2 SSW 13 17 7 9 1018.3 - 0.0
19/02:00am 11.0 7.3 6.1 72 2.3 S 15 17 8 9 1018.4 - 0.0
19/01:30am 11.3 7.9 6.0 70 2.5 S 13 15 7 8 1018.6 - 0.0
19/01:00am 12.0 8.3 6.3 68 2.7 SSW 15 17 8 9 1018.5 - 0.0
19/12:30am 12.4 8.7 6.3 66 2.9 SSW 15 20 8 11 1018.6 - 0.0
19/12:00am 12.7 8.6 6.2 64 3.1 S 17 22 9 12 1018.5 1018.3 0.0
 
Date/Time
CDT
Temp
°C
App
Temp
°C
Dew
Point
Rel
Hum
%
Delta-T
°C
Wind Press
QNH
hPa
Press
MSL
hPa
Rain
since 9 am
mm
Dir
 
Spd
km/h
Gust
km/h
Spd
kts
Gust
kts
18/11:30pm 13.4 9.8 6.8 64 3.2 SSW 15 20 8 11 1018.3 - 0.0
18/11:00pm 13.3 10.0 6.4 63 3.3 SSW 13 19 7 10 1018.3 - 0.0
18/10:30pm 13.7 9.9 5.7 58 3.8 S 15 20 8 11 1018.1 - 0.0
18/10:00pm 13.4 9.1 5.1 57 3.9 SSW 17 24 9 13 1017.9 - 0.0
18/09:30pm 14.1 8.9 5.7 57 4.0 SSW 22 28 12 15 1017.6 - 0.0
18/09:00pm 14.2 9.4 5.8 57 4.0 SW 20 28 11 15 1017.3 1017.1 0.0
18/08:30pm 14.5 9.9 6.5 58 3.9 SW 20 28 11 15 1017.0 - 0.0
18/08:00pm 15.1 10.5 6.3 55 4.3 SW 20 28 11 15 1016.8 - 0.0
18/07:30pm 15.9 9.8 4.7 47 5.3 SSW 26 35 14 19 1016.5 - 0.0
18/07:00pm 16.6 10.1 4.9 46 5.6 SW 28 41 15 22 1016.0 - 0.0
18/06:30pm 16.4 10.2 6.2 51 5.0 SW 28 37 15 20 1015.5 - 0.0
18/06:00pm 17.1 10.6 6.4 49 5.3 SW 30 41 16 22 1015.2 1014.9 0.0
18/05:30pm 18.1 10.9 5.1 42 6.3 SSW 32 43 17 23 1014.9 - 0.0
18/05:00pm 18.9 12.1 6.8 45 6.1 SW 32 44 17 24 1014.8 - 0.0
18/04:30pm 18.4 11.4 6.1 44 6.1 SW 32 44 17 24 1014.5 - 0.0
18/04:00pm 18.7 11.3 6.6 45 6.1 SW 35 46 19 25 1014.3 - 0.0
18/03:30pm 18.5 10.7 4.9 40 6.6 SW 35 50 19 27 1013.9 - 0.0
18/03:00pm 18.1 11.4 7.3 49 5.5 SW 32 44 17 24 1013.6 1013.4 0.0
18/02:30pm 18.7 11.4 7.3 47 5.8 SW 35 44 19 24 1013.5 - 0.0
18/02:00pm 18.3 11.5 7.5 49 5.5 WSW 33 43 18 23 1013.4 - 0.0
18/01:30pm 18.8 12.1 7.5 47 5.8 SW 32 46 17 25 1013.3 - 0.0
18/01:00pm 18.6 11.6 8.4 51 5.3 SW 35 48 19 26 1013.1 - 0.0
18/12:30pm 17.8 11.9 9.0 56 4.6 SW 30 43 16 23 1013.1 - 0.0
18/12:18pm 17.3 11.5 9.5 60 4.1 WSW 30 50 16 27 1012.8 - 0.0
18/12:00pm 18.7 13.4 9.7 56 4.8 WSW 28 37 15 20 1012.6 1012.4 0.0
18/11:30am 18.7 12.2 8.8 52 5.2 SW 33 44 18 24 1012.4 - 0.0
18/11:00am 18.4 11.4 8.6 53 5.1 SW 35 48 19 26 1012.1 - 0.0
18/10:30am 18.2 11.6 8.4 52 5.1 WSW 33 44 18 24 1011.7 - 0.0
18/10:00am 17.4 11.3 9.9 61 4.0 SW 32 43 17 23 1011.5 - 0.0
18/09:30am 17.0 12.2 11.7 71 2.9 SW 28 39 15 21 1011.3 - 0.0
18/09:00am 15.6 10.0 12.0 79 2.0 SW 33 46 18 25 1010.7 1010.4 0.0
18/08:44am 16.0 9.0 11.4 74 2.5 SW 39 50 21 27 1010.4 - 0.0
18/08:30am 16.4 11.3 12.0 75 2.4 W 30 46 16 25 1010.2 - 0.0
18/08:00am 16.1 10.3 11.5 74 2.5 W 33 48 18 26 1009.9 - 0.0
18/07:30am 16.0 10.5 11.8 76 2.3 W 32 43 17 23 1009.5 - 0.0
18/07:00am 15.3 10.3 10.8 74 2.4 W 28 48 15 26 1009.0 - 0.0
18/06:58am 15.3 10.3 10.8 74 2.4 W 28 48 15 26 1009.0 - 0.0
18/06:30am 14.7 9.0 11.2 79 1.9 W 32 43 17 23 1008.8 - 0.0
18/06:00am 14.4 9.1 12.4 88 1.1 W 32 46 17 25 1008.6 1008.3 0.0
18/05:53am 14.2 9.4 11.8 85 1.3 W 28 46 15 25 1008.6 - 0.0
18/05:30am 14.8 11.0 12.4 85 1.3 W 24 33 13 18 1008.4 - 0.0
18/05:00am 14.8 10.0 11.7 82 1.7 W 28 41 15 22 1008.1 - 0.0
18/04:30am 15.4 10.0 10.9 74 2.4 WNW 30 41 16 22 1007.7 - 0.0
18/04:00am 15.1 10.1 10.8 75 2.3 W 28 39 15 21 1007.6 - 0.0
18/03:30am 15.0 10.4 10.9 76 2.2 W 26 35 14 19 1007.5 - 0.0
18/03:00am 14.9 10.1 10.2 73 2.5 W 26 35 14 19 1007.6 1007.3 0.0
18/02:30am 14.9 10.6 10.6 75 2.3 WNW 24 33 13 18 1008.0 - 0.0
18/02:00am 15.0 10.6 10.3 73 2.5 WNW 24 35 13 19 1008.1 - 0.0
18/01:30am 15.0 10.5 10.1 72 2.6 WNW 24 32 13 17 1008.3 - 0.0
18/01:00am 14.8 11.2 10.0 73 2.5 WNW 19 26 10 14 1008.2 - 0.0
18/12:30am 15.1 11.6 10.2 72 2.6 WNW 19 26 10 14 1008.5 - 0.0
18/12:00am 15.0 11.8 10.1 72 2.6 WNW 17 22 9 12 1008.5 1008.2 0.0
 
Date/Time
CDT
Temp
°C
App
Temp
°C
Dew
Point
Rel
Hum
%
Delta-T
°C
Wind Press
QNH
hPa
Press
MSL
hPa
Rain
since 9 am
mm
Dir
 
Spd
km/h
Gust
km/h
Spd
kts
Gust
kts
17/11:30pm 15.0 11.8 9.9 71 2.7 WNW 17 26 9 14 1008.6 - 0.0
17/11:00pm 14.8 11.2 9.8 72 2.6 WNW 19 24 10 13 1008.9 - 0.0
17/10:30pm 14.3 11.9 9.9 75 2.3 WNW 13 17 7 9 1008.9 - 0.0
17/10:00pm 14.4 11.4 9.4 72 2.6 WNW 15 20 8 11 1008.7 - 0.0
17/09:30pm 15.2 11.7 10.3 72 2.6 W 19 26 10 14 1008.8 - 0.0
17/09:00pm 14.7 11.3 9.3 70 2.8 W 17 24 9 13 1008.8 1008.5 0.0
17/08:30pm 14.8 11.5 9.4 70 2.8 W 17 24 9 13 1008.7 - 0.0
17/08:00pm 16.0 13.3 9.1 63 3.6 W 13 19 7 10 1008.4 - 0.0
17/07:30pm 16.4 13.3 8.7 60 4.0 W 15 20 8 11 1008.4 - 0.0
17/07:00pm 15.7 11.6 8.5 62 3.7 W 20 28 11 15 1008.4 - 0.0
17/06:30pm 16.1 11.9 7.6 57 4.3 WSW 19 26 10 14 1008.3 - 0.0
17/06:00pm 17.7 13.3 7.2 50 5.3 WSW 20 28 11 15 1008.3 1008.0 0.0
17/05:30pm 18.3 14.0 7.1 48 5.7 W 19 26 10 14 1008.5 - 0.0
17/05:00pm 18.2 13.1 6.1 45 6.0 WNW 22 28 12 15 1008.7 - 0.0
17/04:30pm 18.8 14.0 7.2 47 5.9 WNW 22 30 12 16 1008.9 - 0.0

Other Formats:

Comma delimited format used in spreadsheet applications
http://www.bom.gov.au/fwo/IDS60801/IDS60801.95805.axf

JavaScript Object Notation format (JSON) in row-major order
http://www.bom.gov.au/fwo/IDS60801/IDS60801.95805.json